MTZ weather

Bar Yehuda Airfield
Masada, Southern District, Israel

Public forecast

Using degrees Celsius for public forecast. Weather courtesy of forecast.io.

Closest aviation weather report (METAR) to Bar Yehuda Airfield

Closest report is Queen Alia International Airport, 39.0 nm (72.2 km) NE. Retrieved 2019/10/17 13:00 UTC (56 minutes ago):

OJAI 171300Z 24008KT 5000 HZ FEW035 SCT100 30/15 Q1018 NOSIG

Closest aviation forecast (TAF) to Bar Yehuda Airfield

Closest forecast is Queen Alia International Airport, 39.0 nm (72.2 km) NE. Retrieved 2019/10/17 12:00 UTC (2 hours ago):

TAF OJAI 171100Z 1712/1818 22006KT 5000 HZ FEW035 PROB40 TEMPO 1712/1718 26018KT 3000 -TS SHRA FEW040CB SCT045 BKN070 PROB30 TEMPO 1803/1806 VRB02KT 900 FG